Time;durP1;ratioP1;P1;durP2;ratioP2;P2;SDS_P1;SDS_P2;PMS_P1;PMS_P2;Temp;Humidity;BMP_temperature;BMP_pressure;BME280_temperature;BME280_humidity;BME280_pressure;Samples;Min_cycle;Max_cycle;Signal;HPM_P1;HPM_P2
2022/09/30 00:00:35;;;;;;;11.60;4.70;;;;;;;;;;2076304;28;20038;-68
2022/09/30 00:01:38;;;;;;;9.43;4.72;;;;;;;;;;2095918;28;20285;-68
2022/09/30 00:02:42;;;;;;;9.85;4.80;;;;;;;;;;2079522;28;20287;-68
2022/09/30 00:03:48;;;;;;;8.75;4.80;;;;;;;;;;2074977;28;20280;-68
2022/09/30 00:04:50;;;;;;;8.50;4.75;;;;;;;;;;2071689;28;20276;-68
2022/09/30 00:05:57;;;;;;;8.70;4.50;;;;;;;;;;2075278;28;20288;-68
2022/09/30 00:06:58;;;;;;;8.40;4.30;;;;;;;;;;2079314;28;20284;-68
2022/09/30 00:08:05;;;;;;;8.60;4.45;;;;;;;;;;2079638;28;20051;-68
2022/09/30 00:09:07;;;;;;;9.95;4.95;;;;;;;;;;2080333;28;20284;-68
2022/09/30 00:10:08;;;;;;;12.48;5.25;;;;;;;;;;2071327;28;20280;-68
2022/09/30 00:11:17;;;;;;;7.65;4.25;;;;;;;;;;2069414;28;20297;-67
2022/09/30 00:12:18;;;;;;;9.55;4.63;;;;;;;;;;2064001;28;20506;-67
2022/09/30 00:13:25;;;;;;;9.57;5.10;;;;;;;;;;2072512;28;21054;-68
2022/09/30 00:14:29;;;;;;;9.38;4.82;;;;;;;;;;2073204;28;21177;-67
2022/09/30 00:15:31;;;;;;;10.68;4.60;;;;;;;;;;2049306;28;20279;-68
2022/09/30 00:16:36;;;;;;;9.93;4.80;;;;;;;;;;2057782;28;20043;-69
2022/09/30 00:17:37;;;;;;;11.57;5.35;;;;;;;;;;2057800;28;20638;-68
2022/09/30 00:18:40;;;;;;;12.02;5.10;;;;;;;;;;2064872;28;20268;-67
2022/09/30 00:19:45;;;;;;;9.20;4.85;;;;;;;;;;2081159;28;20280;-67
2022/09/30 00:20:49;;;;;;;12.10;5.15;;;;;;;;;;2070375;28;20265;-67
2022/09/30 00:21:54;;;;;;;13.10;5.25;;;;;;;;;;2074272;28;20660;-68
2022/09/30 00:22:58;;;;;;;11.57;5.07;;;;;;;;;;2081160;28;20264;-67
2022/09/30 00:24:06;;;;;;;10.25;4.75;;;;;;;;;;2081166;28;20295;-68
2022/09/30 00:25:10;;;;;;;9.65;4.40;;;;;;;;;;2080917;28;20786;-67
2022/09/30 00:26:16;;;;;;;7.47;4.32;;;;;;;;;;2073157;28;20287;-68
2022/09/30 00:27:18;;;;;;;12.57;4.35;;;;;;;;;;2073198;28;20029;-68
2022/09/30 00:28:20;;;;;;;9.52;4.38;;;;;;;;;;2071164;28;20269;-67
2022/09/30 00:29:22;;;;;;;13.75;4.68;;;;;;;;;;2064896;28;20296;-67
2022/09/30 00:30:23;;;;;;;8.43;4.25;;;;;;;;;;2056512;28;20278;-68
2022/09/30 00:31:31;;;;;;;9.65;4.07;;;;;;;;;;2066217;28;20292;-67
2022/09/30 00:32:35;;;;;;;6.70;3.92;;;;;;;;;;2080176;28;20279;-66
2022/09/30 00:33:39;;;;;;;9.40;4.53;;;;;;;;;;2072861;28;20366;-67
2022/09/30 00:34:40;;;;;;;6.70;4.20;;;;;;;;;;2065047;28;20026;-66
2022/09/30 00:35:42;;;;;;;8.52;4.22;;;;;;;;;;2069376;28;20657;-67
2022/09/30 00:36:47;;;;;;;9.35;4.30;;;;;;;;;;2072783;28;20303;-68
2022/09/30 00:37:48;;;;;;;7.25;4.43;;;;;;;;;;2073493;28;20265;-68
2022/09/30 00:38:49;;;;;;;7.63;4.32;;;;;;;;;;2057065;28;20282;-68
2022/09/30 00:39:52;;;;;;;7.95;4.22;;;;;;;;;;2073036;28;20390;-68
2022/09/30 00:40:54;;;;;;;8.80;4.57;;;;;;;;;;2064696;28;20289;-67
2022/09/30 00:42:02;;;;;;;9.57;4.40;;;;;;;;;;2066495;28;20281;-67
2022/09/30 00:43:09;;;;;;;9.65;4.78;;;;;;;;;;2073257;28;20037;-67
2022/09/30 00:44:32;;;;;;;9.27;4.38;;;;;;;;;;2066457;28;20288;-66
2022/09/30 00:45:34;;;;;;;7.95;4.32;;;;;;;;;;2074876;28;20287;-67
2022/09/30 00:46:42;;;;;;;10.00;4.40;;;;;;;;;;2073681;28;20273;-66
2022/09/30 00:47:43;;;;;;;8.80;4.47;;;;;;;;;;2081024;28;20276;-67
2022/09/30 00:48:52;;;;;;;9.48;3.95;;;;;;;;;;2083596;28;20322;-67
2022/09/30 00:49:58;;;;;;;8.25;4.03;;;;;;;;;;2081790;28;20283;-67
2022/09/30 00:51:00;;;;;;;7.57;4.43;;;;;;;;;;2080788;28;20287;-67
2022/09/30 00:52:06;;;;;;;8.10;4.55;;;;;;;;;;2073754;28;20280;-67
2022/09/30 00:53:19;;;;;;;9.55;4.55;;;;;;;;;;2073511;28;20289;-67
2022/09/30 00:54:30;;;;;;;9.45;4.50;;;;;;;;;;2080512;28;20287;-67
2022/09/30 00:55:34;;;;;;;9.38;5.03;;;;;;;;;;2081553;28;20260;-67
2022/09/30 00:56:41;;;;;;;;;;;;;;;;;;2081254;28;20275;-68
2022/09/30 00:57:43;;;;;;;10.20;4.47;;;;;;;;;;2072591;28;19960;-67
2022/09/30 00:58:50;;;;;;;8.02;4.20;;;;;;;;;;2064577;28;20292;-67
2022/09/30 00:59:51;;;;;;;9.07;4.93;;;;;;;;;;2049856;28;20275;-67
2022/09/30 01:00:58;;;;;;;10.27;4.53;;;;;;;;;;2057397;28;20267;-67
2022/09/30 01:02:00;;;;;;;9.60;4.43;;;;;;;;;;2082180;28;20586;-67
2022/09/30 01:03:03;;;;;;;11.55;4.57;;;;;;;;;;2080780;28;20272;-67
2022/09/30 01:04:08;;;;;;;8.95;4.45;;;;;;;;;;2073377;28;20283;-67
2022/09/30 01:05:10;;;;;;;13.10;4.75;;;;;;;;;;2073225;28;20265;-67
2022/09/30 01:06:13;;;;;;;9.45;4.55;;;;;;;;;;2072412;28;20772;-67
2022/09/30 01:07:17;;;;;;;11.18;4.60;;;;;;;;;;2064379;28;20305;-68
2022/09/30 01:08:22;;;;;;;10.18;4.95;;;;;;;;;;2073566;28;20280;-68
2022/09/30 01:09:26;;;;;;;9.15;4.50;;;;;;;;;;2080716;28;20656;-67
2022/09/30 01:10:27;;;;;;;9.77;4.60;;;;;;;;;;2081156;28;20279;-67
2022/09/30 01:11:29;;;;;;;9.75;5.13;;;;;;;;;;2080677;28;20893;-66
2022/09/30 01:12:31;;;;;;;9.90;5.05;;;;;;;;;;2080773;28;20256;-67
2022/09/30 01:13:33;;;;;;;10.85;4.50;;;;;;;;;;2072479;28;20328;-67
2022/09/30 01:14:36;;;;;;;9.55;4.63;;;;;;;;;;2064818;28;20789;-67
2022/09/30 01:15:56;;;;;;;9.40;5.13;;;;;;;;;;2080313;28;20842;-67
2022/09/30 01:17:15;;;;;;;8.60;4.90;;;;;;;;;;2080610;28;20264;-67
2022/09/30 01:18:35;;;;;;;8.05;4.80;;;;;;;;;;2066460;28;20273;-67
2022/09/30 01:19:56;;;;;;;12.10;4.50;;;;;;;;;;2069604;28;20273;-68
2022/09/30 01:20:57;;;;;;;7.80;4.47;;;;;;;;;;2074416;28;20464;-67
2022/09/30 01:22:03;;;;;;;9.32;4.82;;;;;;;;;;2072925;28;20787;-67
2022/09/30 01:23:21;;;;;;;10.65;5.20;;;;;;;;;;2088544;28;20283;-67
2022/09/30 01:24:28;;;;;;;8.68;4.75;;;;;;;;;;2094767;28;20274;-66
2022/09/30 01:25:48;;;;;;;10.82;5.07;;;;;;;;;;2096784;28;20271;-67
2022/09/30 01:26:57;;;;;;;8.63;4.50;;;;;;;;;;2097070;28;20298;-67
2022/09/30 01:28:13;;;;;;;10.90;5.10;;;;;;;;;;2085882;28;20284;-67
2022/09/30 01:29:18;;;;;;;8.57;4.90;;;;;;;;;;2088710;28;20275;-67
2022/09/30 01:30:20;;;;;;;13.15;5.07;;;;;;;;;;2088465;28;20274;-66
2022/09/30 01:31:26;;;;;;;9.65;4.97;;;;;;;;;;2080367;28;20268;-67
2022/09/30 01:32:47;;;;;;;8.73;5.35;;;;;;;;;;2080333;28;20295;-66
2022/09/30 01:33:54;;;;;;;12.82;5.05;;;;;;;;;;2083208;28;20655;-67
2022/09/30 01:35:03;;;;;;;;;;;;;;;;;;2080968;28;20272;-68
2022/09/30 01:36:26;;;;;;;10.95;5.30;;;;;;;;;;2081905;28;19917;-67
2022/09/30 01:37:37;;;;;;;9.02;5.05;;;;;;;;;;2082934;28;20278;-67
2022/09/30 01:39:04;;;;;;;11.02;5.32;;;;;;;;;;2081834;28;20279;-68
2022/09/30 01:40:21;;;;;;;9.80;5.28;;;;;;;;;;2088589;28;20294;-68
2022/09/30 01:41:41;;;;;;;11.07;5.25;;;;;;;;;;2086703;28;20279;-67
2022/09/30 01:43:04;;;;;;;12.75;5.45;;;;;;;;;;2064294;28;20337;-68
2022/09/30 01:44:16;;;;;;;14.40;5.63;;;;;;;;;;2070450;28;20072;-68
2022/09/30 01:45:25;;;;;;;9.70;5.30;;;;;;;;;;2079993;28;20279;-68
2022/09/30 01:46:36;;;;;;;10.10;5.47;;;;;;;;;;2073371;28;20289;-67
2022/09/30 01:47:46;;;;;;;11.68;5.20;;;;;;;;;;2065228;28;20285;-67
2022/09/30 01:48:56;;;;;;;9.77;4.97;;;;;;;;;;2074076;28;20273;-68
2022/09/30 01:50:04;;;;;;;10.52;4.68;;;;;;;;;;2080550;28;20268;-67
2022/09/30 01:51:16;;;;;;;10.60;5.55;;;;;;;;;;2080492;28;20037;-68
2022/09/30 01:52:22;;;;;;;10.52;5.15;;;;;;;;;;2064152;28;20343;-67
2022/09/30 01:53:28;;;;;;;13.95;5.75;;;;;;;;;;2050906;28;20281;-67
2022/09/30 01:54:29;;;;;;;11.43;5.65;;;;;;;;;;2048650;28;20662;-67
2022/09/30 01:55:36;;;;;;;11.45;5.53;;;;;;;;;;2048189;28;20805;-67
2022/09/30 01:56:37;;;;;;;11.75;5.72;;;;;;;;;;2065743;28;20281;-68
2022/09/30 01:57:57;;;;;;;10.98;5.78;;;;;;;;;;2064235;28;20356;-67
2022/09/30 01:59:04;;;;;;;11.75;5.65;;;;;;;;;;2074815;28;20842;-68
2022/09/30 02:00:11;;;;;;;10.70;5.63;;;;;;;;;;2075196;28;20041;-68
2022/09/30 02:01:19;;;;;;;10.82;5.80;;;;;;;;;;2088614;28;20279;-67
2022/09/30 02:02:28;;;;;;;12.00;5.55;;;;;;;;;;2088402;28;20802;-68
2022/09/30 02:03:36;;;;;;;11.10;5.80;;;;;;;;;;2078414;28;20279;-68
2022/09/30 02:04:40;;;;;;;10.98;5.70;;;;;;;;;;2064926;28;20277;-67
2022/09/30 02:05:41;;;;;;;11.85;5.45;;;;;;;;;;2059001;28;20758;-68
2022/09/30 02:06:44;;;;;;;13.35;5.80;;;;;;;;;;2080329;28;20359;-68
2022/09/30 02:07:54;;;;;;;9.93;5.50;;;;;;;;;;2080162;28;20048;-68
2022/09/30 02:08:58;;;;;;;14.52;5.93;;;;;;;;;;2065160;28;20277;-68
2022/09/30 02:10:02;;;;;;;12.15;6.13;;;;;;;;;;2064936;28;20293;-67
2022/09/30 02:11:12;;;;;;;13.98;5.88;;;;;;;;;;2064061;28;20301;-67
2022/09/30 02:12:19;;;;;;;13.10;5.93;;;;;;;;;;2067209;28;20285;-67
2022/09/30 02:13:25;;;;;;;14.25;5.93;;;;;;;;;;2072804;28;20304;-68
2022/09/30 02:14:40;;;;;;;14.10;6.55;;;;;;;;;;2081325;28;20299;-67
2022/09/30 02:15:54;;;;;;;11.88;5.78;;;;;;;;;;2079924;28;20496;-67
2022/09/30 02:17:01;;;;;;;9.20;5.03;;;;;;;;;;2073781;28;20299;-68
2022/09/30 02:18:25;;;;;;;18.35;5.95;;;;;;;;;;2080244;28;20283;-68
2022/09/30 02:19:27;;;;;;;10.13;5.45;;;;;;;;;;2076960;28;20272;-67
2022/09/30 02:20:34;;;;;;;16.23;6.15;;;;;;;;;;2067091;28;20276;-67
2022/09/30 02:21:38;;;;;;;14.25;5.50;;;;;;;;;;2073877;28;20022;-69
2022/09/30 02:22:45;;;;;;;11.27;5.05;;;;;;;;;;2088383;28;20283;-67
2022/09/30 02:23:56;;;;;;;12.95;5.35;;;;;;;;;;2087432;28;20288;-67
2022/09/30 02:25:02;;;;;;;10.98;5.55;;;;;;;;;;2081174;28;20280;-67
2022/09/30 02:26:10;;;;;;;9.77;4.93;;;;;;;;;;2080276;28;20609;-68
2022/09/30 02:27:19;;;;;;;11.90;5.60;;;;;;;;;;2088324;28;20271;-67
2022/09/30 02:28:29;;;;;;;11.73;5.68;;;;;;;;;;2080937;28;20775;-67
2022/09/30 02:29:34;;;;;;;10.45;5.00;;;;;;;;;;2080676;28;20636;-67
2022/09/30 02:30:36;;;;;;;8.82;5.45;;;;;;;;;;2080093;28;20268;-67
2022/09/30 02:31:40;;;;;;;11.40;5.75;;;;;;;;;;2077342;28;20048;-67
2022/09/30 02:32:44;;;;;;;11.93;5.55;;;;;;;;;;2087515;28;20275;-67
2022/09/30 02:33:53;;;;;;;9.68;5.13;;;;;;;;;;2071942;28;20397;-68
2022/09/30 02:34:55;;;;;;;;;;;;;;;;;;2066777;28;20281;-67
2022/09/30 02:36:04;;;;;;;14.25;5.32;;;;;;;;;;2078716;28;20360;-68
2022/09/30 02:37:16;;;;;;;11.63;5.88;;;;;;;;;;2065156;28;20296;-67
2022/09/30 02:38:26;;;;;;;9.52;5.32;;;;;;;;;;2066363;28;20806;-67
2022/09/30 02:39:30;;;;;;;13.80;5.80;;;;;;;;;;2074037;28;20025;-67
2022/09/30 02:40:40;;;;;;;12.30;5.93;;;;;;;;;;2080174;28;20276;-67
2022/09/30 02:41:46;;;;;;;10.55;5.40;;;;;;;;;;2088421;28;20267;-68
2022/09/30 02:42:50;;;;;;;12.82;5.20;;;;;;;;;;2087324;28;20759;-67
2022/09/30 02:43:55;;;;;;;13.38;5.75;;;;;;;;;;2080089;28;20319;-68
2022/09/30 02:45:09;;;;;;;11.88;5.60;;;;;;;;;;2072505;28;20840;-68
2022/09/30 02:46:15;;;;;;;10.77;5.53;;;;;;;;;;2073473;28;20269;-67
2022/09/30 02:47:19;;;;;;;;;;;;;;;;;;2072833;28;21145;-67
2022/09/30 02:48:25;;;;;;;13.13;5.10;;;;;;;;;;2080409;28;20349;-68
2022/09/30 02:49:28;;;;;;;9.32;4.85;;;;;;;;;;2080050;28;20268;-67
2022/09/30 02:50:32;;;;;;;10.48;5.38;;;;;;;;;;2072084;28;20280;-68
2022/09/30 02:51:38;;;;;;;9.57;5.15;;;;;;;;;;2064197;28;20277;-68
2022/09/30 02:52:57;;;;;;;12.90;5.10;;;;;;;;;;2064340;28;20285;-68
2022/09/30 02:54:05;;;;;;;9.55;4.90;;;;;;;;;;2074595;28;20042;-67
2022/09/30 02:55:26;;;;;;;10.48;5.20;;;;;;;;;;2079934;28;20026;-68
2022/09/30 02:56:31;;;;;;;13.40;5.45;;;;;;;;;;2080191;28;20030;-68
2022/09/30 02:57:34;;;;;;;10.88;5.38;;;;;;;;;;2080027;28;20025;-67
2022/09/30 02:58:38;;;;;;;10.15;4.85;;;;;;;;;;2072033;28;20285;-68
2022/09/30 02:59:39;;;;;;;12.18;5.20;;;;;;;;;;2064031;28;20308;-67
2022/09/30 03:00:44;;;;;;;11.50;4.97;;;;;;;;;;2078836;28;20290;-68
2022/09/30 03:01:49;;;;;;;14.02;5.25;;;;;;;;;;2096047;28;20279;-68
2022/09/30 03:02:54;;;;;;;10.70;4.88;;;;;;;;;;2096415;28;20939;-67
2022/09/30 03:03:58;;;;;;;9.20;4.72;;;;;;;;;;2082594;28;20272;-67
2022/09/30 03:05:06;;;;;;;8.30;4.43;;;;;;;;;;2079870;28;20291;-68
2022/09/30 03:06:08;;;;;;;8.25;4.70;;;;;;;;;;2069159;28;20265;-67
2022/09/30 03:07:13;;;;;;;11.85;5.20;;;;;;;;;;2065752;28;20301;-68
2022/09/30 03:08:14;;;;;;;10.38;4.80;;;;;;;;;;2080531;28;20287;-67
2022/09/30 03:09:18;;;;;;;10.02;4.53;;;;;;;;;;2079788;28;20329;-67
2022/09/30 03:10:21;;;;;;;9.70;5.25;;;;;;;;;;2071688;28;20030;-67
2022/09/30 03:11:29;;;;;;;8.40;4.40;;;;;;;;;;2065922;28;20041;-67
2022/09/30 03:12:41;;;;;;;8.30;4.75;;;;;;;;;;2088165;28;20766;-67
2022/09/30 03:14:17;;;;;;;12.00;4.85;;;;;;;;;;2088052;28;20286;-68
2022/09/30 03:15:18;;;;;;;12.65;4.93;;;;;;;;;;2083685;28;20275;-67
2022/09/30 03:16:40;;;;;;;8.73;4.50;;;;;;;;;;2079906;28;20280;-67
2022/09/30 03:18:01;;;;;;;9.25;5.00;;;;;;;;;;2088186;28;20043;-67
2022/09/30 03:19:20;;;;;;;9.38;4.82;;;;;;;;;;2087917;28;20655;-67
2022/09/30 03:20:38;;;;;;;10.38;4.53;;;;;;;;;;2085171;28;20083;-67
2022/09/30 03:21:39;;;;;;;11.32;5.10;;;;;;;;;;2079710;28;20307;-67
2022/09/30 03:22:41;;;;;;;9.88;4.72;;;;;;;;;;2063601;28;20274;-67
2022/09/30 03:23:52;;;;;;;10.77;4.38;;;;;;;;;;2071871;28;20284;-67
2022/09/30 03:24:56;;;;;;;12.20;4.82;;;;;;;;;;2079961;28;20609;-67
2022/09/30 03:26:05;;;;;;;10.63;4.95;;;;;;;;;;2055570;28;20297;-67
2022/09/30 03:27:07;;;;;;;;;;;;;;;;;;2066053;28;20288;-67
2022/09/30 03:28:16;;;;;;;8.35;4.05;;;;;;;;;;2085520;28;19945;-67
2022/09/30 03:29:17;;;;;;;9.70;4.75;;;;;;;;;;2087756;28;20279;-67
2022/09/30 03:30:25;;;;;;;10.45;4.38;;;;;;;;;;2079797;28;20279;-67
2022/09/30 03:31:38;;;;;;;8.80;4.60;;;;;;;;;;2079580;28;20633;-67
2022/09/30 03:32:51;;;;;;;9.55;4.90;;;;;;;;;;2073146;28;20285;-68
2022/09/30 03:34:08;;;;;;;11.93;5.03;;;;;;;;;;2081495;28;20295;-67
2022/09/30 03:35:21;;;;;;;10.18;4.72;;;;;;;;;;2086551;28;20275;-67
2022/09/30 03:36:23;;;;;;;9.48;4.70;;;;;;;;;;2087975;28;20286;-67
2022/09/30 03:37:44;;;;;;;8.05;4.63;;;;;;;;;;2087189;28;20274;-68
2022/09/30 03:39:03;;;;;;;10.15;5.07;;;;;;;;;;2079339;28;20268;-68
2022/09/30 03:40:16;;;;;;;14.88;4.97;;;;;;;;;;2080356;28;20275;-67
2022/09/30 03:41:39;;;;;;;8.82;4.70;;;;;;;;;;2087748;28;20271;-68
2022/09/30 03:42:45;;;;;;;8.38;4.88;;;;;;;;;;2082656;28;20588;-67
2022/09/30 03:43:48;;;;;;;11.15;5.43;;;;;;;;;;2081561;28;20798;-67
2022/09/30 03:44:55;;;;;;;9.38;5.28;;;;;;;;;;2088189;28;20298;-67
2022/09/30 03:46:05;;;;;;;11.07;5.50;;;;;;;;;;2096071;28;20271;-67
2022/09/30 03:47:10;;;;;;;11.23;5.35;;;;;;;;;;2095686;28;20282;-68
2022/09/30 03:48:14;;;;;;;10.93;5.05;;;;;;;;;;2088239;28;20029;-68
2022/09/30 03:49:22;;;;;;;11.32;5.10;;;;;;;;;;2079582;28;20287;-68
2022/09/30 03:50:27;;;;;;;9.75;5.22;;;;;;;;;;2073012;28;20662;-67
2022/09/30 03:51:31;;;;;;;9.75;5.13;;;;;;;;;;2073048;28;20291;-67
2022/09/30 03:52:37;;;;;;;11.05;5.03;;;;;;;;;;2069096;28;20278;-68
2022/09/30 03:53:45;;;;;;;10.85;5.40;;;;;;;;;;2073294;28;20296;-68
2022/09/30 03:54:51;;;;;;;8.82;5.07;;;;;;;;;;2072700;28;20327;-67
2022/09/30 03:55:53;;;;;;;9.00;5.38;;;;;;;;;;2069995;28;20281;-68
2022/09/30 03:56:54;;;;;;;12.32;5.40;;;;;;;;;;2073572;28;20265;-69
2022/09/30 03:58:01;;;;;;;13.38;5.45;;;;;;;;;;2071821;28;20280;-69
2022/09/30 03:59:05;;;;;;;10.48;5.10;;;;;;;;;;2063667;28;20049;-69
2022/09/30 04:00:08;;;;;;;12.82;5.63;;;;;;;;;;2071715;28;20257;-69
2022/09/30 04:01:31;;;;;;;12.43;5.53;;;;;;;;;;2093246;28;20274;-68
2022/09/30 04:02:36;;;;;;;13.15;5.85;;;;;;;;;;2080429;28;20298;-67
2022/09/30 04:03:41;;;;;;;13.45;5.63;;;;;;;;;;2074633;28;20272;-68
2022/09/30 04:04:43;;;;;;;10.98;5.50;;;;;;;;;;2078464;28;20279;-67
2022/09/30 04:05:48;;;;;;;13.52;5.18;;;;;;;;;;2073231;28;20276;-67
2022/09/30 04:06:54;;;;;;;13.93;5.60;;;;;;;;;;2085724;28;20279;-67
2022/09/30 04:07:56;;;;;;;15.48;5.75;;;;;;;;;;2078209;28;20328;-67
2022/09/30 04:09:00;;;;;;;11.73;5.68;;;;;;;;;;2074358;28;20275;-67
2022/09/30 04:10:02;;;;;;;16.77;6.53;;;;;;;;;;2078296;28;20281;-68
2022/09/30 04:11:04;;;;;;;12.13;6.40;;;;;;;;;;2070350;28;20288;-67
2022/09/30 04:12:08;;;;;;;13.07;6.50;;;;;;;;;;2070164;28;20284;-67
2022/09/30 04:13:17;;;;;;;13.77;6.68;;;;;;;;;;2071678;28;20114;-67
2022/09/30 04:14:18;;;;;;;14.50;5.30;;;;;;;;;;2063027;28;20281;-66
2022/09/30 04:15:23;;;;;;;10.85;5.50;;;;;;;;;;2070150;28;20300;-67
2022/09/30 04:16:24;;;;;;;11.07;5.55;;;;;;;;;;2085202;28;20290;-67
2022/09/30 04:17:26;;;;;;;13.18;5.57;;;;;;;;;;2086457;28;20279;-68
2022/09/30 04:18:30;;;;;;;12.02;5.57;;;;;;;;;;2070152;28;20260;-67
2022/09/30 04:19:34;;;;;;;11.27;5.40;;;;;;;;;;2062275;28;20284;-66
2022/09/30 04:20:39;;;;;;;9.82;5.63;;;;;;;;;;2062826;28;20069;-67
2022/09/30 04:21:40;;;;;;;12.45;5.32;;;;;;;;;;2062478;28;20300;-67
2022/09/30 04:22:47;;;;;;;10.48;5.85;;;;;;;;;;2070585;28;20299;-67
2022/09/30 04:23:51;;;;;;;13.75;6.28;;;;;;;;;;2071365;28;20280;-66
2022/09/30 04:24:53;;;;;;;10.85;5.60;;;;;;;;;;2070944;28;20049;-66
2022/09/30 04:25:56;;;;;;;12.70;6.28;;;;;;;;;;2070334;28;20268;-66
2022/09/30 04:27:02;;;;;;;11.18;5.50;;;;;;;;;;2051693;28;20269;-66
2022/09/30 04:28:07;;;;;;;10.90;5.25;;;;;;;;;;2075186;28;20339;-67
2022/09/30 04:29:14;;;;;;;10.93;4.68;;;;;;;;;;2078811;28;20273;-66
2022/09/30 04:30:18;;;;;;;14.80;5.75;;;;;;;;;;2078349;28;20275;-66
2022/09/30 04:31:27;;;;;;;12.25;5.47;;;;;;;;;;2080726;28;20268;-66
2022/09/30 04:32:29;;;;;;;10.48;5.57;;;;;;;;;;2078311;28;20032;-69
2022/09/30 04:33:30;;;;;;;10.68;5.38;;;;;;;;;;2070207;28;20327;-68
2022/09/30 04:34:40;;;;;;;10.70;5.47;;;;;;;;;;2078271;28;20279;-67
2022/09/30 04:35:45;;;;;;;9.63;4.95;;;;;;;;;;2069887;28;20049;-67
2022/09/30 04:36:50;;;;;;;12.10;5.22;;;;;;;;;;2063672;28;20285;-66
2022/09/30 04:37:51;;;;;;;12.05;5.40;;;;;;;;;;2075737;28;20275;-69
2022/09/30 04:38:53;;;;;;;9.05;5.22;;;;;;;;;;2077450;28;20280;-65
2022/09/30 04:40:01;;;;;;;8.65;5.00;;;;;;;;;;2086223;28;20655;-68
2022/09/30 04:41:10;;;;;;;8.20;4.85;;;;;;;;;;2090725;28;20272;-65
2022/09/30 04:42:17;;;;;;;9.35;5.10;;;;;;;;;;2094264;28;20305;-65
2022/09/30 04:43:21;;;;;;;8.25;4.53;;;;;;;;;;2094436;28;20270;-65
2022/09/30 04:44:22;;;;;;;8.77;4.70;;;;;;;;;;2086117;28;20271;-67
2022/09/30 04:45:24;;;;;;;12.57;5.28;;;;;;;;;;2078074;28;20369;-66
2022/09/30 04:46:27;;;;;;;12.50;4.97;;;;;;;;;;2078204;28;20272;-65
2022/09/30 04:47:30;;;;;;;11.23;4.93;;;;;;;;;;2078368;28;20291;-65
2022/09/30 04:48:33;;;;;;;12.15;5.07;;;;;;;;;;2086549;28;20278;-65
2022/09/30 04:49:37;;;;;;;10.65;4.78;;;;;;;;;;2093925;28;20801;-65
2022/09/30 04:50:42;;;;;;;8.13;4.88;;;;;;;;;;2095299;28;20278;-65
2022/09/30 04:51:44;;;;;;;11.63;5.00;;;;;;;;;;2094849;28;20805;-66
2022/09/30 04:52:46;;;;;;;9.05;4.93;;;;;;;;;;2072878;28;20292;-66
2022/09/30 04:53:47;;;;;;;10.43;5.25;;;;;;;;;;2061764;28;20292;-66
2022/09/30 04:54:52;;;;;;;12.80;5.00;;;;;;;;;;2069702;28;20284;-66
2022/09/30 04:56:00;;;;;;;11.00;4.63;;;;;;;;;;2077953;28;20780;-66
2022/09/30 04:57:05;;;;;;;11.93;4.53;;;;;;;;;;2071124;28;20268;-66
2022/09/30 04:58:09;;;;;;;14.70;5.20;;;;;;;;;;2062179;28;20285;-66
2022/09/30 04:59:11;;;;;;;11.20;4.80;;;;;;;;;;2070531;28;20269;-65
2022/09/30 05:00:15;;;;;;;8.82;4.63;;;;;;;;;;2077613;28;20721;-65
2022/09/30 05:01:20;;;;;;;9.35;4.63;;;;;;;;;;2085878;28;20301;-65
2022/09/30 05:02:26;;;;;;;8.02;4.28;;;;;;;;;;2080683;28;20280;-65
2022/09/30 05:03:31;;;;;;;11.32;4.55;;;;;;;;;;2075925;28;20264;-65
2022/09/30 05:04:33;;;;;;;10.45;4.68;;;;;;;;;;2062836;28;20277;-66
2022/09/30 05:05:39;;;;;;;10.48;4.72;;;;;;;;;;2065820;28;20675;-65
2022/09/30 05:06:44;;;;;;;8.05;4.32;;;;;;;;;;2069427;28;20284;-66
2022/09/30 05:07:49;;;;;;;8.65;4.70;;;;;;;;;;2056308;28;20034;-65
2022/09/30 05:08:51;;;;;;;8.30;4.82;;;;;;;;;;2063068;28;20641;-65
2022/09/30 05:09:54;;;;;;;9.05;4.68;;;;;;;;;;2069023;28;20276;-63
2022/09/30 05:10:59;;;;;;;8.75;4.97;;;;;;;;;;2063070;28;20026;-64
2022/09/30 05:12:02;;;;;;;10.00;4.57;;;;;;;;;;2071284;28;20291;-64
2022/09/30 05:13:04;;;;;;;6.63;4.28;;;;;;;;;;2084634;28;20656;-64
2022/09/30 05:14:08;;;;;;;9.13;5.05;;;;;;;;;;2087204;28;20627;-64
2022/09/30 05:15:11;;;;;;;8.13;4.75;;;;;;;;;;2070795;28;20292;-65
2022/09/30 05:16:17;;;;;;;10.70;5.03;;;;;;;;;;2063892;28;20280;-65
2022/09/30 05:17:18;;;;;;;10.23;4.75;;;;;;;;;;2065622;28;20272;-64
2022/09/30 05:18:21;;;;;;;9.85;4.80;;;;;;;;;;2071484;28;20776;-65
2022/09/30 05:19:26;;;;;;;10.13;4.90;;;;;;;;;;2079651;28;20268;-65
2022/09/30 05:20:32;;;;;;;24.75;5.43;;;;;;;;;;2086544;28;20279;-64
2022/09/30 05:21:34;;;;;;;15.95;4.82;;;;;;;;;;2074608;28;20285;-65
2022/09/30 05:22:37;;;;;;;8.20;4.50;;;;;;;;;;2063923;28;20552;-64
2022/09/30 05:23:44;;;;;;;8.93;4.60;;;;;;;;;;2072936;28;21305;-65
2022/09/30 05:24:46;;;;;;;10.43;4.70;;;;;;;;;;2080527;28;20283;-66
2022/09/30 05:25:49;;;;;;;10.88;4.60;;;;;;;;;;2080674;28;20044;-66
2022/09/30 05:26:53;;;;;;;9.10;4.47;;;;;;;;;;2072475;28;20335;-64
2022/09/30 05:27:55;;;;;;;8.90;4.70;;;;;;;;;;2080520;28;20018;-66
2022/09/30 05:28:57;;;;;;;8.57;4.53;;;;;;;;;;2081160;28;20624;-66
2022/09/30 05:29:59;;;;;;;11.52;5.20;;;;;;;;;;2080513;28;20268;-66
2022/09/30 05:31:02;;;;;;;10.60;5.13;;;;;;;;;;2072246;28;20257;-65
2022/09/30 05:32:03;;;;;;;8.80;4.50;;;;;;;;;;2072373;28;20610;-64
2022/09/30 05:33:07;;;;;;;6.53;4.13;;;;;;;;;;2072488;28;20273;-65
2022/09/30 05:34:08;;;;;;;8.98;4.43;;;;;;;;;;2080639;28;20387;-64
2022/09/30 05:35:11;;;;;;;9.65;4.38;;;;;;;;;;2081584;28;20268;-66
2022/09/30 05:36:15;;;;;;;8.50;4.13;;;;;;;;;;2088417;28;20279;-65
2022/09/30 05:37:19;;;;;;;11.77;4.70;;;;;;;;;;2087562;28;20787;-66
2022/09/30 05:38:21;;;;;;;9.88;4.93;;;;;;;;;;2088532;28;20640;-66
2022/09/30 05:39:25;;;;;;;10.18;4.60;;;;;;;;;;2087169;28;20021;-66
2022/09/30 05:40:32;;;;;;;9.95;4.60;;;;;;;;;;2088773;28;20294;-67
2022/09/30 05:41:33;;;;;;;7.47;4.72;;;;;;;;;;2086822;28;20029;-66
2022/09/30 05:42:37;;;;;;;8.52;4.60;;;;;;;;;;2080416;28;20033;-66
2022/09/30 05:43:46;;;;;;;12.10;4.55;;;;;;;;;;2082211;28;20276;-66
2022/09/30 05:44:50;;;;;;;8.90;4.88;;;;;;;;;;2096767;28;20055;-65
2022/09/30 05:45:58;;;;;;;7.63;4.70;;;;;;;;;;2096464;28;20279;-66
2022/09/30 05:47:01;;;;;;;8.55;4.57;;;;;;;;;;2089721;28;20044;-66
2022/09/30 05:48:03;;;;;;;12.40;4.97;;;;;;;;;;2080327;28;20621;-66
2022/09/30 05:49:05;;;;;;;10.32;5.18;;;;;;;;;;2074573;28;20811;-66
2022/09/30 05:50:14;;;;;;;8.25;4.68;;;;;;;;;;2064844;28;20156;-67
2022/09/30 05:51:18;;;;;;;10.23;4.28;;;;;;;;;;2065202;28;20042;-66
2022/09/30 05:52:24;;;;;;;9.38;4.82;;;;;;;;;;2072353;28;20280;-66
2022/09/30 05:53:26;;;;;;;11.43;4.50;;;;;;;;;;2072867;28;20487;-67
2022/09/30 05:54:31;;;;;;;13.80;4.90;;;;;;;;;;2079560;28;20268;-66
2022/09/30 05:55:32;;;;;;;8.60;4.60;;;;;;;;;;2080944;28;20038;-66
2022/09/30 05:56:34;;;;;;;12.38;4.75;;;;;;;;;;2080270;28;20033;-66
2022/09/30 05:57:35;;;;;;;11.38;5.13;;;;;;;;;;2072232;28;20029;-66
2022/09/30 05:58:43;;;;;;;12.70;4.88;;;;;;;;;;2073716;28;20045;-66
2022/09/30 05:59:49;;;;;;;11.63;5.00;;;;;;;;;;2073147;28;20042;-66
2022/09/30 06:00:51;;;;;;;12.85;5.40;;;;;;;;;;2081069;28;20037;-66
2022/09/30 06:01:53;;;;;;;10.07;5.15;;;;;;;;;;2096437;28;20415;-66
2022/09/30 06:02:54;;;;;;;14.52;5.00;;;;;;;;;;2097391;28;20736;-66
2022/09/30 06:04:01;;;;;;;8.23;4.88;;;;;;;;;;2089535;28;20409;-66
2022/09/30 06:05:03;;;;;;;8.43;4.80;;;;;;;;;;2081089;28;20276;-66
2022/09/30 06:06:07;;;;;;;9.52;4.85;;;;;;;;;;2080766;28;20768;-66
2022/09/30 06:07:12;;;;;;;11.35;5.28;;;;;;;;;;2080409;28;20799;-66
2022/09/30 06:08:18;;;;;;;12.85;5.80;;;;;;;;;;2081119;28;20044;-65
2022/09/30 06:09:20;;;;;;;11.38;5.60;;;;;;;;;;2083558;28;20028;-66
2022/09/30 06:10:23;;;;;;;8.68;4.75;;;;;;;;;;2071888;28;20038;-66
2022/09/30 06:11:25;;;;;;;12.45;5.25;;;;;;;;;;2072705;28;20029;-66
2022/09/30 06:12:27;;;;;;;9.13;5.18;;;;;;;;;;2088638;28;20032;-66
2022/09/30 06:13:29;;;;;;;9.02;4.78;;;;;;;;;;2088630;28;20037;-66
2022/09/30 06:14:33;;;;;;;8.85;5.03;;;;;;;;;;2080257;28;20033;-65
2022/09/30 06:15:40;;;;;;;;;;;;;;;;;;2081319;28;20053;-66
2022/09/30 06:16:41;;;;;;;11.10;5.32;;;;;;;;;;2084933;28;19924;-65
2022/09/30 06:17:46;;;;;;;10.93;5.65;;;;;;;;;;2079534;28;20037;-66
2022/09/30 06:18:48;;;;;;;9.77;5.38;;;;;;;;;;2080663;28;20041;-66
2022/09/30 06:19:55;;;;;;;9.82;5.10;;;;;;;;;;2080976;28;20524;-66
2022/09/30 06:20:57;;;;;;;16.10;5.70;;;;;;;;;;2080034;28;20036;-66
2022/09/30 06:21:59;;;;;;;11.95;6.20;;;;;;;;;;2063782;28;20048;-66
2022/09/30 06:23:00;;;;;;;10.23;5.85;;;;;;;;;;2072052;28;20022;-67
2022/09/30 06:24:02;;;;;;;9.02;5.47;;;;;;;;;;2071855;28;20072;-66
2022/09/30 06:25:08;;;;;;;10.60;5.50;;;;;;;;;;2064016;28;20045;-66
2022/09/30 06:26:13;;;;;;;10.90;5.57;;;;;;;;;;2080123;28;20781;-66
2022/09/30 06:27:14;;;;;;;9.55;5.35;;;;;;;;;;2080327;28;20389;-66
2022/09/30 06:28:18;;;;;;;11.10;5.35;;;;;;;;;;2086005;28;20035;-66
2022/09/30 06:29:20;;;;;;;8.80;5.40;;;;;;;;;;2072358;28;20042;-66
2022/09/30 06:30:24;;;;;;;10.18;4.97;;;;;;;;;;2080351;28;20033;-66
2022/09/30 06:31:25;;;;;;;12.77;5.35;;;;;;;;;;2079908;28;20040;-66
2022/09/30 06:32:30;;;;;;;11.63;5.30;;;;;;;;;;2080240;28;20025;-66
2022/09/30 06:33:37;;;;;;;14.55;5.88;;;;;;;;;;2081924;28;20036;-66